Time;durP1;ratioP1;P1;durP2;ratioP2;P2;SDS_P1;SDS_P2;PMS_P1;PMS_P2;Temp;Humidity;BMP_temperature;BMP_pressure;BME280_temperature;BME280_humidity;BME280_pressure;Samples;Min_cycle;Max_cycle;Signal;HPM_P1;HPM_P2
2023/12/12 00:02:09;;;;;;;9.95;2.92;;;;;;;-146.27;87.03;33245.75;5101896;28;20049;-69
2023/12/12 00:04:34;;;;;;;11.55;2.97;;;;;;;-146.27;87.02;33299.31;5106943;28;20028;-68
2023/12/12 00:06:59;;;;;;;5.70;2.35;;;;;;;-146.27;86.93;33279.47;5106550;28;20034;-68
2023/12/12 00:09:25;;;;;;;6.22;2.58;;;;;;;-146.27;86.83;33317.16;5093714;28;20105;-69
2023/12/12 00:11:51;;;;;;;8.85;2.58;;;;;;;-146.27;86.91;33283.44;5092303;28;20056;-69
2023/12/12 00:14:17;;;;;;;10.38;2.50;;;;;;;-146.27;87.09;33307.25;5098242;28;20498;-69
2023/12/12 00:16:45;;;;;;;7.82;2.65;;;;;;;-146.27;87.48;33287.41;5100849;28;20031;-69
2023/12/12 00:19:10;;;;;;;8.77;2.70;;;;;;;-146.27;87.36;33396.53;5095456;28;20027;-67
2023/12/12 00:21:36;;;;;;;6.70;2.50;;;;;;;-146.27;87.47;33390.59;5099222;28;20028;-69
2023/12/12 00:24:01;;;;;;;11.02;3.28;;;;;;;-146.27;87.91;33368.75;5096785;28;20046;-69
2023/12/12 00:26:27;;;;;;;13.27;3.13;;;;;;;-146.27;87.78;33406.47;5078728;28;20024;-69
2023/12/12 00:28:52;;;;;;;9.02;2.80;;;;;;;-146.27;88.15;33374.72;5105941;28;20496;-69
2023/12/12 00:31:17;;;;;;;6.95;2.67;;;;;;;-146.27;87.96;33390.59;5090506;28;20478;-67
2023/12/12 00:33:43;;;;;;;8.20;2.90;;;;;;;-146.27;87.59;33406.47;5104486;28;20028;-69
2023/12/12 00:36:08;;;;;;;8.93;2.65;;;;;;;-146.27;87.78;33374.72;5094954;28;20441;-70
2023/12/12 00:38:34;;;;;;;14.25;2.70;;;;;;;-146.27;87.55;33388.59;5099586;28;20032;-70
2023/12/12 00:40:59;;;;;;;7.45;3.50;;;;;;;-146.27;87.81;33408.44;5092374;28;20537;-69
2023/12/12 00:43:24;;;;;;;7.55;2.65;;;;;;;-146.27;87.78;33410.44;5101373;28;20368;-69
2023/12/12 00:45:50;;;;;;;9.95;2.88;;;;;;;-146.27;87.32;33430.28;5099258;28;20061;-69
2023/12/12 00:48:17;;;;;;;4.20;2.65;;;;;;;-146.27;88.00;33392.56;5105088;28;20100;-69
2023/12/12 00:50:43;;;;;;;7.20;2.22;;;;;;;-146.27;88.05;33386.63;5108301;28;20027;-70
2023/12/12 00:53:08;;;;;;;9.77;2.53;;;;;;;-146.27;88.19;33408.44;5094290;28;20059;-69
2023/12/12 00:55:33;;;;;;;11.32;2.22;;;;;;;-146.27;88.52;33331.06;5093165;28;20020;-69
2023/12/12 00:57:59;;;;;;;6.75;1.90;;;;;;;-146.27;88.66;33356.84;5098756;28;20108;-69
2023/12/12 01:00:24;;;;;;;6.05;2.20;;;;;;;-146.27;87.92;33319.16;5093905;28;20065;-68
2023/12/12 01:02:50;;;;;;;11.02;2.10;;;;;;;-146.27;87.63;33279.47;5095556;28;20055;-68
2023/12/12 01:05:15;;;;;;;7.57;2.55;;;;;;;-146.27;87.24;33279.47;5093897;28;20035;-69
2023/12/12 01:07:41;;;;;;;14.25;2.22;;;;;;;-146.27;87.02;33307.25;5099270;28;20024;-69
2023/12/12 01:10:06;;;;;;;12.90;2.10;;;;;;;-146.27;86.87;33283.44;5097143;28;20375;-69
2023/12/12 01:12:32;;;;;;;8.25;2.67;;;;;;;-146.27;86.87;33327.09;5081322;28;20154;-70
2023/12/12 01:15:00;;;;;;;15.35;1.92;;;;;;;-146.27;86.82;33295.34;5093251;28;20027;-69
2023/12/12 01:17:26;;;;;;;7.97;2.08;;;;;;;-146.27;86.75;33206.06;5089985;28;20031;-71
2023/12/12 01:19:52;;;;;;;9.95;3.15;;;;;;;-146.27;86.77;33275.50;5097839;28;20034;-69
2023/12/12 01:22:17;;;;;;;5.70;2.10;;;;;;;-146.27;86.88;33283.44;5090946;28;20020;-69
2023/12/12 01:24:42;;;;;;;7.93;2.05;;;;;;;-146.27;86.64;33259.63;5091982;28;20502;-68
2023/12/12 01:27:09;;;;;;;5.78;1.83;;;;;;;-146.27;86.43;33249.72;5089652;28;20483;-70
2023/12/12 01:29:35;;;;;;;9.25;1.92;;;;;;;-146.27;86.17;33255.66;5100614;28;20051;-69
2023/12/12 01:32:01;;;;;;;7.35;2.17;;;;;;;-146.27;86.16;33215.97;5077816;28;20024;-69
2023/12/12 01:34:26;;;;;;;8.25;2.10;;;;;;;-146.27;86.02;33231.84;5089180;28;20089;-69
2023/12/12 01:36:52;;;;;;;6.95;1.73;;;;;;;-146.27;86.01;33204.06;5102547;28;20046;-69
2023/12/12 01:39:17;;;;;;;9.05;1.92;;;;;;;-146.27;85.80;33229.88;5095541;28;20123;-69
2023/12/12 01:41:46;;;;;;;10.30;2.05;;;;;;;-146.27;85.85;33273.53;5096962;28;20020;-69
2023/12/12 01:44:11;;;;;;;7.45;2.22;;;;;;;-146.27;85.32;33229.88;5088646;28;20460;-69
2023/12/12 01:46:37;;;;;;;9.80;2.13;;;;;;;-146.27;85.60;33249.72;5090458;28;20062;-68
2023/12/12 01:49:03;;;;;;;8.40;1.48;;;;;;;-146.27;85.30;33307.25;5100112;28;20038;-69
2023/12/12 01:51:29;;;;;;;8.02;2.33;;;;;;;-146.27;85.57;33299.31;5106433;28;20463;-68
2023/12/12 01:53:57;;;;;;;7.03;2.05;;;;;;;-146.27;85.21;33339.00;5092990;28;20403;-69
2023/12/12 01:56:22;;;;;;;7.25;1.90;;;;;;;-146.27;85.46;33331.06;5091896;28;20560;-69
2023/12/12 01:58:50;;;;;;;5.03;2.80;;;;;;;-146.27;85.42;33342.97;5101914;28;20024;-69
2023/12/12 02:01:16;;;;;;;8.43;2.30;;;;;;;-146.27;85.53;33339.00;5091801;28;20028;-70
2023/12/12 02:03:42;;;;;;;9.57;3.17;;;;;;;-146.27;85.57;33372.72;5100903;28;20027;-69
2023/12/12 02:06:09;;;;;;;9.68;2.20;;;;;;;-146.27;85.57;33404.47;5095129;28;20118;-69
2023/12/12 02:08:34;;;;;;;12.90;2.03;;;;;;;-146.27;85.46;33422.34;5094529;28;20046;-69
2023/12/12 02:11:00;;;;;;;7.55;2.60;;;;;;;-146.27;85.72;33428.28;5104313;28;20339;-70
2023/12/12 02:13:26;;;;;;;4.97;2.17;;;;;;;-146.27;85.83;33430.28;5106608;28;20035;-70
2023/12/12 02:15:51;;;;;;;8.43;2.63;;;;;;;-146.27;85.82;33418.38;5099522;28;20059;-68
2023/12/12 02:18:17;;;;;;;10.18;2.17;;;;;;;-146.27;86.04;33430.28;5089084;28;20468;-69
2023/12/12 02:20:43;;;;;;;9.73;2.33;;;;;;;-146.27;86.22;33485.81;5100217;28;20475;-69
2023/12/12 02:23:08;;;;;;;7.38;2.97;;;;;;;-146.27;86.18;33481.84;5106660;28;20031;-69
2023/12/12 02:25:35;;;;;;;7.15;2.55;;;;;;;-146.27;86.32;33489.78;5100622;28;20035;-69
2023/12/12 02:28:02;;;;;;;9.18;2.97;;;;;;;-146.27;86.70;33509.63;5095991;28;20549;-68
2023/12/12 02:30:28;;;;;;;13.32;3.97;;;;;;;-146.27;86.65;33454.06;5104003;28;20048;-68
2023/12/12 02:32:53;;;;;;;9.43;3.70;;;;;;;-146.27;86.55;33471.94;5100286;28;20094;-69
2023/12/12 02:35:19;;;;;;;8.75;3.75;;;;;;;-146.27;86.73;33501.69;5095105;28;20068;-70
2023/12/12 02:37:44;;;;;;;15.93;4.20;;;;;;;-146.27;87.04;33525.50;5095651;28;20031;-70
2023/12/12 02:40:10;;;;;;;10.90;4.22;;;;;;;-146.27;87.18;33471.94;5097480;28;20024;-70
2023/12/12 02:42:35;;;;;;;13.23;3.95;;;;;;;-146.27;87.38;33519.56;5105927;28;20034;-70
2023/12/12 02:45:00;;;;;;;9.98;3.83;;;;;;;-146.27;87.89;33529.47;5100375;28;20028;-69
2023/12/12 02:47:26;;;;;;;11.38;3.92;;;;;;;-146.27;87.48;33469.94;5104126;28;20058;-69
2023/12/12 02:49:51;;;;;;;18.70;4.68;;;;;;;-146.27;87.59;33517.56;5092268;28;20012;-69
2023/12/12 02:52:16;;;;;;;19.33;6.03;;;;;;;-146.27;87.18;33525.50;5094908;28;20028;-69
2023/12/12 02:54:42;;;;;;;25.00;6.28;;;;;;;-146.27;87.29;33489.78;5104519;28;20023;-68
2023/12/12 02:57:07;;;;;;;13.98;5.40;;;;;;;-146.27;87.41;33519.56;5109098;28;20099;-69
2023/12/12 02:59:33;;;;;;;14.85;5.10;;;;;;;-146.27;87.59;33493.75;5100710;28;20023;-69
2023/12/12 03:01:58;;;;;;;15.15;5.32;;;;;;;-146.27;87.54;33521.53;5096191;28;20031;-70
2023/12/12 03:04:24;;;;;;;14.25;5.13;;;;;;;-146.27;87.16;33511.63;5098666;28;20032;-70
2023/12/12 03:06:49;;;;;;;13.15;4.82;;;;;;;-146.27;87.55;33585.03;5097428;28;20135;-70
2023/12/12 03:09:14;;;;;;;22.48;5.55;;;;;;;-146.27;87.65;33523.53;5108263;28;20023;-68
2023/12/12 03:11:40;;;;;;;17.83;5.75;;;;;;;-146.27;87.92;33551.31;5101260;28;20476;-70
2023/12/12 03:14:05;;;;;;;19.40;6.38;;;;;;;-146.27;88.17;33539.41;5093760;28;20391;-69
2023/12/12 03:16:30;;;;;;;19.77;6.07;;;;;;;-146.27;88.24;33539.41;5095196;28;20024;-69
2023/12/12 03:18:56;;;;;;;17.00;6.25;;;;;;;-146.27;88.13;33529.47;5092062;28;20036;-69
2023/12/12 03:21:21;;;;;;;21.75;7.30;;;;;;;-146.27;88.17;33557.25;5107403;28;20025;-69
2023/12/12 03:23:47;;;;;;;21.15;7.22;;;;;;;-146.27;88.17;33585.03;5101060;28;20031;-69
2023/12/12 03:26:12;;;;;;;23.02;7.50;;;;;;;-146.27;88.33;33585.03;5084814;28;20015;-69
2023/12/12 03:28:38;;;;;;;15.65;6.85;;;;;;;-146.27;88.54;33598.94;5098547;28;20115;-69
2023/12/12 03:31:04;;;;;;;25.60;7.90;;;;;;;-146.27;88.32;33585.03;5094306;28;20128;-70
2023/12/12 03:33:30;;;;;;;16.17;7.72;;;;;;;-146.27;87.79;33493.75;5098101;28;20092;-70
2023/12/12 03:35:55;;;;;;;18.65;7.30;;;;;;;-146.27;88.16;33630.69;5104847;28;20106;-69
2023/12/12 03:38:20;;;;;;;18.60;7.85;;;;;;;-146.27;88.24;33620.75;5101151;28;20487;-69
2023/12/12 03:40:46;;;;;;;16.95;7.80;;;;;;;-146.27;88.46;33638.59;5103128;28;20031;-69
2023/12/12 03:43:11;;;;;;;28.58;10.18;;;;;;;-146.27;88.83;33573.13;5094571;28;20392;-69
2023/12/12 03:45:36;;;;;;;25.75;10.95;;;;;;;-146.27;88.53;33583.06;5100035;28;20423;-69
2023/12/12 03:48:02;;;;;;;27.30;10.68;;;;;;;-146.27;88.70;33553.28;5090416;28;20059;-69
2023/12/12 03:50:28;;;;;;;33.83;10.93;;;;;;;-146.27;88.62;33581.06;5108038;28;20028;-69
2023/12/12 03:52:53;;;;;;;24.73;9.90;;;;;;;-146.27;88.54;33509.63;5089891;28;20035;-69
2023/12/12 03:55:18;;;;;;;21.33;10.10;;;;;;;-146.27;88.60;33589.00;5104800;28;20455;-68
2023/12/12 03:57:44;;;;;;;30.33;11.15;;;;;;;-146.27;88.80;33585.03;5093317;28;20139;-69
2023/12/12 04:00:10;;;;;;;33.75;11.63;;;;;;;-146.27;89.17;33581.06;5101877;28;20085;-70
2023/12/12 04:02:36;;;;;;;26.23;10.20;;;;;;;-146.27;89.05;33577.09;5092743;28;20024;-70
2023/12/12 04:05:02;;;;;;;36.80;10.93;;;;;;;-146.27;89.19;33569.16;5093233;28;20073;-70
2023/12/12 04:07:28;;;;;;;33.35;13.07;;;;;;;-146.27;89.13;33551.31;5095142;28;20054;-70
2023/12/12 04:09:53;;;;;;;29.17;14.30;;;;;;;-146.27;89.39;33519.56;5094860;28;20023;-69
2023/12/12 04:12:19;;;;;;;34.92;12.35;;;;;;;-146.27;89.15;33545.34;5073983;28;20464;-69
2023/12/12 04:14:44;;;;;;;35.17;11.30;;;;;;;-146.27;88.71;33571.16;5091878;28;20027;-70
2023/12/12 04:17:11;;;;;;;29.05;11.88;;;;;;;-146.27;88.82;33612.81;5105041;28;20072;-69
2023/12/12 04:19:37;;;;;;;27.80;11.23;;;;;;;-146.27;89.00;33577.09;5107287;28;20028;-69
2023/12/12 04:22:03;;;;;;;27.52;11.90;;;;;;;-146.27;88.93;33585.03;5098767;28;20030;-70
2023/12/12 04:24:28;;;;;;;29.50;12.40;;;;;;;-146.27;88.91;33573.13;5101940;28;20092;-69
2023/12/12 04:26:53;;;;;;;33.17;12.57;;;;;;;-146.27;88.69;33551.31;5109475;28;20028;-69
2023/12/12 04:29:19;;;;;;;30.73;12.98;;;;;;;-146.27;88.74;33565.19;5102948;28;20483;-69
2023/12/12 04:31:48;;;;;;;25.00;12.98;;;;;;;-146.27;89.32;33569.16;5101495;28;20034;-69
2023/12/12 04:34:14;;;;;;;34.88;12.90;;;;;;;-146.27;89.61;33589.00;5100864;28;20067;-68
2023/12/12 04:36:39;;;;;;;32.50;13.13;;;;;;;-146.27;89.59;33537.41;5084944;28;20080;-68
2023/12/12 04:39:05;;;;;;;31.65;12.90;;;;;;;-146.27;89.34;33519.56;5095064;28;20047;-68
2023/12/12 04:41:31;;;;;;;31.75;12.75;;;;;;;-146.27;89.49;33571.16;5092604;28;20032;-70
2023/12/12 04:43:56;;;;;;;27.85;13.18;;;;;;;-146.27;89.40;33537.41;5077708;28;20032;-70
2023/12/12 04:46:21;;;;;;;30.75;13.30;;;;;;;-146.27;89.57;33541.38;5096456;28;20019;-70
2023/12/12 04:48:47;;;;;;;38.47;14.07;;;;;;;-146.27;89.43;33509.63;5093087;28;20015;-69
2023/12/12 04:51:13;;;;;;;32.58;12.57;;;;;;;-146.27;89.37;33525.50;5104404;28;20058;-68
2023/12/12 04:53:38;;;;;;;34.05;13.13;;;;;;;-146.27;89.50;33505.66;5108523;28;20639;-70
2023/12/12 04:56:05;;;;;;;27.35;13.55;;;;;;;-146.27;89.37;33511.63;5091179;28;20527;-70
2023/12/12 04:58:30;;;;;;;38.22;13.32;;;;;;;-146.27;89.04;33503.69;5102314;28;20585;-69
2023/12/12 05:00:55;;;;;;;37.83;13.55;;;;;;;-146.27;89.15;33509.63;5095769;28;20056;-68
2023/12/12 05:03:21;;;;;;;44.58;14.60;;;;;;;-146.27;89.25;33497.72;5095358;28;20024;-69
2023/12/12 05:05:48;;;;;;;35.55;14.45;;;;;;;-146.27;89.54;33507.66;5101455;28;20032;-69
2023/12/12 05:08:13;;;;;;;37.25;14.15;;;;;;;-146.27;89.24;33469.94;5094640;28;20077;-68
2023/12/12 05:10:38;;;;;;;30.90;14.70;;;;;;;-146.27;89.32;33450.09;5093613;28;20035;-69
2023/12/12 05:13:04;;;;;;;33.20;14.80;;;;;;;-146.27;89.44;33458.03;5099574;28;20123;-69
2023/12/12 05:15:29;;;;;;;38.88;14.80;;;;;;;-146.27;89.57;33473.91;5091909;28;20110;-69
2023/12/12 05:17:54;;;;;;;37.70;15.27;;;;;;;-146.27;89.60;33467.97;5094199;28;20069;-69
2023/12/12 05:20:20;;;;;;;36.75;14.50;;;;;;;-146.27;89.50;33469.94;5102564;28;20046;-69
2023/12/12 05:22:45;;;;;;;39.03;14.73;;;;;;;-146.27;89.42;33406.47;5092025;28;20028;-69
2023/12/12 05:25:11;;;;;;;43.55;15.52;;;;;;;-146.27;89.53;33477.88;5099145;28;20022;-70
2023/12/12 05:27:36;;;;;;;46.60;16.17;;;;;;;-146.27;89.53;33460.03;5091556;28;20434;-68
2023/12/12 05:30:02;;;;;;;42.03;15.50;;;;;;;-146.27;89.80;33446.13;5095261;28;20036;-70
2023/12/12 05:32:27;;;;;;;41.20;14.50;;;;;;;-146.27;89.64;33442.16;5108327;28;20076;-68
2023/12/12 05:34:52;;;;;;;47.03;15.77;;;;;;;-146.27;89.86;33424.31;5100740;28;20067;-68
2023/12/12 05:37:18;;;;;;;31.73;14.68;;;;;;;-146.27;89.67;33384.63;5077096;28;20080;-69
2023/12/12 05:39:43;;;;;;;41.80;15.00;;;;;;;-146.27;89.52;33370.75;5098219;28;20028;-69
2023/12/12 05:42:09;;;;;;;35.33;15.77;;;;;;;-146.27;89.77;33440.19;5097464;28;20585;-70
2023/12/12 05:44:34;;;;;;;40.35;14.52;;;;;;;-146.27;89.51;33402.50;5096271;28;20016;-69
2023/12/12 05:46:59;;;;;;;33.65;13.43;;;;;;;-146.27;89.50;33454.06;5094363;28;20072;-70
2023/12/12 05:49:25;;;;;;;30.83;12.52;;;;;;;-146.27;89.50;33422.34;5102576;28;20517;-69
2023/12/12 05:51:50;;;;;;;32.30;12.93;;;;;;;-146.27;89.46;33446.13;5096843;28;20452;-69
2023/12/12 05:54:15;;;;;;;40.03;13.57;;;;;;;-146.27;89.44;33471.94;5092273;28;20035;-69
2023/12/12 05:56:43;;;;;;;37.13;13.57;;;;;;;-146.27;89.83;33450.09;5090545;28;20399;-69
2023/12/12 05:59:08;;;;;;;43.92;13.98;;;;;;;-146.27;89.76;33408.44;5100102;28;20383;-69
2023/12/12 06:01:34;;;;;;;35.50;14.85;;;;;;;-146.27;89.66;33406.47;5105440;28;20023;-69
2023/12/12 06:03:59;;;;;;;34.55;15.55;;;;;;;-146.27;89.86;33418.38;5106421;28;20024;-71
2023/12/12 06:06:25;;;;;;;36.53;15.55;;;;;;;-146.27;89.83;33422.34;5101536;28;20024;-69
2023/12/12 06:08:51;;;;;;;44.25;15.90;;;;;;;-146.27;89.75;33424.31;5097209;28;20036;-70
2023/12/12 06:11:17;;;;;;;45.00;17.05;;;;;;;-146.27;89.93;33398.53;5107339;28;20076;-69
2023/12/12 06:13:42;;;;;;;35.28;17.02;;;;;;;-146.27;90.06;33366.78;5098023;28;20028;-69
2023/12/12 06:16:08;;;;;;;45.72;15.95;;;;;;;-146.27;90.26;33339.00;5097232;28;20395;-70
2023/12/12 06:18:33;;;;;;;43.33;16.13;;;;;;;-146.27;90.20;33360.81;5103489;28;20031;-70
2023/12/12 06:20:58;;;;;;;32.42;15.43;;;;;;;-146.27;90.02;33339.00;5107426;28;20051;-68
2023/12/12 06:23:24;;;;;;;40.90;15.65;;;;;;;-146.27;90.05;33348.91;5101287;28;20055;-69
2023/12/12 06:25:49;;;;;;;44.92;16.73;;;;;;;-146.27;90.27;33366.78;5102454;28;20107;-69
2023/12/12 06:28:14;;;;;;;45.42;15.60;;;;;;;-146.27;90.11;33366.78;5104731;28;20107;-70
2023/12/12 06:30:40;;;;;;;44.55;15.10;;;;;;;-146.27;89.99;33303.28;5096808;28;20098;-69
2023/12/12 06:33:05;;;;;;;39.80;15.68;;;;;;;-146.27;90.02;33307.25;5103647;28;20066;-69
2023/12/12 06:35:31;;;;;;;40.53;14.93;;;;;;;-146.27;89.88;33283.44;5102525;28;20483;-70
2023/12/12 06:37:56;;;;;;;44.78;16.15;;;;;;;-146.27;90.13;33283.44;5101202;28;20407;-69
2023/12/12 06:40:22;;;;;;;35.78;15.43;;;;;;;-146.27;90.20;33269.56;5098295;28;20053;-70
2023/12/12 06:42:47;;;;;;;49.20;16.98;;;;;;;-146.27;90.00;33251.69;5100010;28;20020;-70
2023/12/12 06:45:13;;;;;;;55.95;17.38;;;;;;;-146.27;90.18;33283.44;5102451;28;20106;-69
2023/12/12 06:47:39;;;;;;;41.90;16.20;;;;;;;-146.27;89.98;33247.72;5099534;28;20531;-69
2023/12/12 06:50:04;;;;;;;40.20;15.95;;;;;;;-146.27;90.18;33255.66;5105418;28;20599;-73
2023/12/12 06:52:31;;;;;;;48.58;16.27;;;;;;;-146.27;89.95;33186.22;5102199;28;20035;-70
2023/12/12 06:54:56;;;;;;;45.75;17.75;;;;;;;-146.27;90.29;33287.41;5108631;28;20048;-70
2023/12/12 06:57:22;;;;;;;49.88;17.45;;;;;;;-146.27;90.50;33255.66;5106954;28;20054;-68
2023/12/12 06:59:48;;;;;;;45.45;19.15;;;;;;;-146.27;90.31;33229.88;5102349;28;20042;-69
2023/12/12 07:02:14;;;;;;;46.72;17.52;;;;;;;-146.27;90.43;33239.78;5098068;28;20062;-69
2023/12/12 07:04:39;;;;;;;42.10;15.55;;;;;;;-146.27;90.26;33259.63;5100995;28;20047;-69
2023/12/12 07:07:05;;;;;;;33.92;15.30;;;;;;;-146.27;90.56;33255.66;5099077;28;20036;-69
2023/12/12 07:09:30;;;;;;;36.92;15.65;;;;;;;-146.27;90.39;33239.78;5092018;28;20024;-69
2023/12/12 07:11:55;;;;;;;39.30;15.18;;;;;;;-146.27;90.34;33233.84;5092846;28;20016;-69
2023/12/12 07:14:21;;;;;;;40.80;15.05;;;;;;;-146.27;90.59;33217.97;5092684;28;20024;-69
2023/12/12 07:16:46;;;;;;;35.35;15.60;;;;;;;-146.27;90.58;33219.94;5092288;28;20055;-69
2023/12/12 07:19:11;;;;;;;34.00;15.88;;;;;;;-146.27;90.55;33219.94;5108912;28;20050;-70
2023/12/12 07:21:41;;;;;;;37.53;15.55;;;;;;;-146.27;90.91;33184.25;5100759;28;20120;-70
2023/12/12 07:24:07;;;;;;;29.33;14.23;;;;;;;-146.27;90.71;33160.44;5094085;28;20032;-71
2023/12/12 07:26:33;;;;;;;34.33;15.52;;;;;;;-146.27;90.69;33188.19;5092456;28;20103;-70
2023/12/12 07:28:58;;;;;;;38.00;15.93;;;;;;;-146.27;90.93;33204.06;5098731;28;20055;-71
2023/12/12 07:31:24;;;;;;;29.33;14.00;;;;;;;-146.27;90.67;33178.28;5091740;28;20523;-72
2023/12/12 07:33:50;;;;;;;29.77;14.95;;;;;;;-146.27;90.88;33172.34;5097808;28;20024;-70
2023/12/12 07:36:15;;;;;;;37.95;16.23;;;;;;;-146.27;90.86;33144.56;5100087;28;20034;-69
2023/12/12 07:38:41;;;;;;;38.72;16.02;;;;;;;-146.27;91.15;33140.59;5097083;28;20066;-69
2023/12/12 07:41:07;;;;;;;36.80;15.70;;;;;;;-146.27;91.05;33132.66;5096960;28;20023;-68
2023/12/12 07:43:32;;;;;;;26.77;14.48;;;;;;;-146.27;90.99;33144.56;5094151;28;20035;-69
2023/12/12 07:45:57;;;;;;;39.15;14.85;;;;;;;-146.27;91.13;33170.34;5097300;28;20563;-69
2023/12/12 07:48:23;;;;;;;33.72;15.15;;;;;;;-146.27;91.22;33160.44;5106818;28;20032;-68
2023/12/12 07:50:48;;;;;;;38.35;15.75;;;;;;;-146.27;91.42;33140.59;5091431;28;20639;-68
2023/12/12 07:53:13;;;;;;;42.15;16.45;;;;;;;-146.27;91.48;33116.78;5092011;28;20032;-68
2023/12/12 07:55:39;;;;;;;33.35;15.13;;;;;;;-146.27;91.43;33122.72;5091966;28;20472;-68
2023/12/12 07:58:04;;;;;;;45.22;14.93;;;;;;;-146.27;91.45;33081.06;5100013;28;20024;-68
2023/12/12 08:00:29;;;;;;;37.90;14.45;;;;;;;-146.27;91.20;33108.84;5091854;28;20127;-69
2023/12/12 08:02:55;;;;;;;42.97;14.45;;;;;;;-146.27;91.33;33069.16;5090848;28;20045;-70
2023/12/12 08:05:20;;;;;;;33.08;15.43;;;;;;;-146.27;91.18;33092.97;5109976;28;20035;-70
2023/12/12 08:07:46;;;;;;;47.90;16.60;;;;;;;-146.27;91.33;33094.97;5112082;28;20024;-70
2023/12/12 08:10:11;;;;;;;42.35;15.15;;;;;;;-146.27;91.45;33114.78;5112021;28;20041;-70
2023/12/12 08:12:36;;;;;;;35.35;15.32;;;;;;;-146.27;91.50;33096.94;5091586;28;20653;-69
2023/12/12 08:15:03;;;;;;;36.80;15.00;;;;;;;-146.27;91.50;33047.34;5091560;28;20043;-69
2023/12/12 08:17:29;;;;;;;38.30;14.18;;;;;;;-146.27;91.29;33089.00;5091660;28;20518;-69
2023/12/12 08:19:54;;;;;;;38.25;14.90;;;;;;;-146.27;91.72;33085.03;5091356;28;20020;-69
2023/12/12 08:22:19;;;;;;;51.55;15.25;;;;;;;-146.27;91.73;33067.19;5091200;28;20470;-69
2023/12/12 08:24:48;;;;;;;52.03;16.20;;;;;;;-146.27;91.69;33089.00;5091525;28;20107;-68
2023/12/12 08:27:13;;;;;;;49.15;15.63;;;;;;;-146.27;91.74;33059.25;5091183;28;20039;-70
2023/12/12 08:29:38;;;;;;;54.25;16.20;;;;;;;-146.27;91.69;33061.22;5091259;28;20036;-69
2023/12/12 08:32:04;;;;;;;55.65;15.65;;;;;;;-146.27;92.09;33118.75;5091202;28;20499;-68
2023/12/12 08:34:33;;;;;;;56.13;16.05;;;;;;;-146.27;92.07;33077.09;5091338;28;20403;-69
2023/12/12 08:36:59;;;;;;;48.95;15.95;;;;;;;-146.27;91.90;33051.31;5091376;28;20016;-69
2023/12/12 08:39:24;;;;;;;51.25;16.27;;;;;;;-146.27;92.04;33085.03;5091288;28;20137;-70
2023/12/12 08:41:49;;;;;;;62.28;15.60;;;;;;;-146.27;91.82;33077.09;5090490;28;20447;-68
2023/12/12 08:44:15;;;;;;;45.08;14.77;;;;;;;-146.27;91.75;33009.66;5098385;28;20491;-68
2023/12/12 08:46:43;;;;;;;51.25;15.23;;;;;;;-146.27;91.66;33013.63;5111303;28;20027;-69
2023/12/12 08:49:08;;;;;;;53.30;15.70;;;;;;;-146.27;91.92;33075.13;5111346;28;20111;-70
2023/12/12 08:51:34;;;;;;;55.80;14.77;;;;;;;-146.27;91.82;33055.28;5098312;28;20099;-72
2023/12/12 08:54:02;;;;;;;54.97;15.40;;;;;;;-146.27;92.06;33065.19;5092344;28;20035;-70
2023/12/12 08:56:27;;;;;;;44.05;15.20;;;;;;;-146.27;92.04;33019.56;5099302;28;20020;-70
2023/12/12 08:58:54;;;;;;;50.20;14.00;;;;;;;-146.27;92.10;33041.38;5092605;28;20051;-70
2023/12/12 09:01:20;;;;;;;50.10;14.27;;;;;;;-146.27;91.96;33005.69;5098512;28;20031;-69
2023/12/12 09:03:45;;;;;;;53.65;14.43;;;;;;;-146.27;91.77;32991.78;5091060;28;20027;-69
2023/12/12 09:06:11;;;;;;;44.17;13.65;;;;;;;-146.27;91.70;32983.84;5090713;28;20365;-69
2023/12/12 09:08:43;;;;;;;38.42;14.52;;;;;;;-146.27;91.66;32977.91;5090949;28;20055;-69
2023/12/12 09:11:10;;;;;;;55.03;16.83;;;;;;;-146.27;91.76;32920.38;5101118;28;20020;-69
2023/12/12 09:13:35;;;;;;;48.65;14.50;;;;;;;-146.27;91.77;32938.22;5092916;28;20052;-68
2023/12/12 09:16:00;;;;;;;49.35;14.77;;;;;;;-146.27;91.89;32898.53;5099676;28;20051;-70
2023/12/12 09:18:26;;;;;;;43.85;13.82;;;;;;;-146.27;91.76;32862.84;5106131;28;20444;-68
2023/12/12 09:20:51;;;;;;;46.72;13.77;;;;;;;-146.27;91.74;32876.72;5091176;28;20510;-70
2023/12/12 09:23:17;;;;;;;46.88;13.60;;;;;;;-146.27;91.85;32876.72;5091769;28;20097;-68
2023/12/12 09:25:42;;;;;;;41.90;13.35;;;;;;;-146.27;92.28;32922.34;5091689;28;20038;-69
2023/12/12 09:28:08;;;;;;;42.85;12.10;;;;;;;-146.27;92.55;32876.72;5100907;28;20397;-69
2023/12/12 09:30:33;;;;;;;37.85;12.25;;;;;;;-146.27;91.90;32823.16;5090699;28;20093;-69
2023/12/12 09:32:59;;;;;;;36.53;12.00;;;;;;;-146.27;91.74;32807.28;5100750;28;20051;-69
2023/12/12 09:35:24;;;;;;;44.38;13.15;;;;;;;-146.27;91.91;32779.50;5090635;28;20427;-69
2023/12/12 09:37:50;;;;;;;39.55;12.73;;;;;;;-146.27;91.98;32835.06;5090397;28;20050;-68
2023/12/12 09:40:15;;;;;;;35.53;13.00;;;;;;;-146.27;91.68;32789.44;5103420;28;20110;-68
2023/12/12 09:42:41;;;;;;;45.10;14.35;;;;;;;-146.27;91.77;32761.66;5110803;28;20024;-69
2023/12/12 09:45:13;;;;;;;38.22;13.60;;;;;;;-146.27;91.91;32757.69;5102727;28;20024;-68
2023/12/12 09:47:42;;;;;;;42.17;12.98;;;;;;;-146.27;91.63;32751.75;5089877;28;20028;-68
2023/12/12 09:50:09;;;;;;;50.88;14.00;;;;;;;-146.27;91.54;32712.06;5094450;28;20031;-69
2023/12/12 09:52:36;;;;;;;49.70;13.13;;;;;;;-146.27;91.42;32696.19;5098351;28;20028;-68
2023/12/12 09:55:01;;;;;;;42.25;13.38;;;;;;;-146.27;91.39;32636.69;5103531;28;20092;-69
2023/12/12 09:57:28;;;;;;;46.00;13.68;;;;;;;-146.27;91.34;32656.50;5104893;28;20478;-68
2023/12/12 09:59:54;;;;;;;33.40;12.13;;;;;;;-146.27;91.35;32644.63;5110153;28;20391;-68
2023/12/12 10:02:22;;;;;;;42.95;12.00;;;;;;;-146.27;91.29;32636.69;5110599;28;20028;-69
2023/12/12 10:04:49;;;;;;;30.08;10.65;;;;;;;-146.27;91.26;32598.97;5095468;28;20028;-69
2023/12/12 10:07:18;;;;;;;33.88;12.00;;;;;;;-146.27;91.23;32583.13;5091252;28;20052;-69
2023/12/12 10:09:43;;;;;;;38.50;11.95;;;;;;;-146.27;91.12;32537.50;5101405;28;20012;-70
2023/12/12 10:12:08;;;;;;;31.73;10.45;;;;;;;-146.27;91.00;32531.53;5090284;28;20353;-71
2023/12/12 10:14:41;;;;;;;28.83;11.27;;;;;;;-146.27;91.07;32533.53;5089459;28;20407;-68
2023/12/12 10:17:10;;;;;;;25.58;9.80;;;;;;;-146.27;91.10;32565.25;5093001;28;20028;-69
2023/12/12 10:19:39;;;;;;;31.67;12.07;;;;;;;-146.27;91.22;32595.03;5089980;28;20020;-69
2023/12/12 10:22:06;;;;;;;31.30;11.18;;;;;;;-146.27;91.27;32573.19;5094565;28;20780;-69
2023/12/12 10:24:32;;;;;;;43.63;12.38;;;;;;;-146.27;91.14;32559.31;5093319;28;20024;-69
2023/12/12 10:26:58;;;;;;;37.97;11.35;;;;;;;-146.27;91.18;32493.84;5089541;28;20888;-68
2023/12/12 10:29:24;;;;;;;40.75;11.45;;;;;;;-146.27;91.53;32577.16;5089396;28;20036;-69
2023/12/12 10:31:50;;;;;;;35.55;12.10;;;;;;;-146.27;91.31;32577.16;5089844;28;20480;-69
2023/12/12 10:34:19;;;;;;;41.08;12.02;;;;;;;-146.27;91.07;32474.00;5099526;28;20039;-68
2023/12/12 10:36:50;;;;;;;37.78;12.52;;;;;;;-146.27;91.01;32503.75;5097101;28;20027;-69
2023/12/12 10:39:16;;;;;;;32.67;12.45;;;;;;;-146.27;90.77;32533.53;5099840;28;20424;-68
2023/12/12 10:41:52;;;;;;;32.03;12.95;;;;;;;-146.27;91.12;32477.97;5071602;28;20165;-68
2023/12/12 10:44:22;;;;;;;34.50;12.77;;;;;;;-146.27;90.51;32454.16;5101929;28;20106;-68
2023/12/12 10:46:52;;;;;;;31.48;12.30;;;;;;;-146.27;91.00;32517.66;5100417;28;20168;-69
2023/12/12 10:49:20;;;;;;;32.47;12.57;;;;;;;-146.27;90.73;32497.81;5092748;28;20027;-69
2023/12/12 10:51:47;;;;;;;34.75;11.98;;;;;;;-146.27;90.56;32464.09;5093450;28;20024;-70
2023/12/12 10:54:14;;;;;;;30.25;11.13;;;;;;;-146.27;90.06;32414.50;5113181;28;20027;-69
2023/12/12 10:56:39;;;;;;;28.17;11.93;;;;;;;-146.27;90.09;32454.16;5100929;28;20047;-69
2023/12/12 10:59:06;;;;;;;34.20;12.40;;;;;;;-146.27;89.93;32434.34;5107888;28;20395;-70